createdAt,value
2018-12-22T00:01:48.442Z,31.50
2018-12-22T00:04:15.976Z,41.10
2018-12-22T00:06:43.475Z,39.70
2018-12-22T00:09:10.905Z,32.97
2018-12-22T00:11:38.550Z,28.53
2018-12-22T00:14:05.979Z,41.80
2018-12-22T00:16:33.417Z,38.47
2018-12-22T00:19:01.114Z,24.70
2018-12-22T00:21:28.787Z,36.30
2018-12-22T00:23:56.536Z,32.97
2018-12-22T00:26:24.215Z,26.03
2018-12-22T00:28:51.846Z,29.00
2018-12-22T00:31:19.376Z,29.47
2018-12-22T00:33:46.764Z,28.03
2018-12-22T00:36:16.058Z,30.20
2018-12-22T00:38:43.621Z,30.67
2018-12-22T00:41:11.079Z,32.67
2018-12-22T00:43:38.545Z,31.50
2018-12-22T00:49:12.937Z,32.50
2018-12-22T00:51:40.520Z,23.90
2018-12-22T00:54:08.008Z,33.23
2018-12-22T00:56:35.487Z,35.63
2018-12-22T00:59:02.919Z,37.23
2018-12-22T01:01:30.374Z,43.13
2018-12-22T01:03:58.843Z,38.17
2018-12-22T01:06:26.362Z,35.00
2018-12-22T01:08:54.066Z,37.30
2018-12-22T01:11:21.585Z,41.07
2018-12-22T01:13:49.141Z,40.97
2018-12-22T01:16:17.565Z,37.83
2018-12-22T01:18:45.167Z,31.50
2018-12-22T01:21:12.676Z,39.57
2018-12-22T01:23:40.362Z,34.93
2018-12-22T01:26:08.203Z,38.93
2018-12-22T01:28:39.460Z,37.57
2018-12-22T01:31:05.298Z,43.07
2018-12-22T01:33:32.900Z,39.27
2018-12-22T01:36:00.473Z,33.27
2018-12-22T01:38:27.914Z,32.47
2018-12-22T01:40:56.601Z,37.10
2018-12-22T01:43:25.109Z,44.13
2018-12-22T01:45:52.759Z,38.33
2018-12-22T01:48:20.418Z,39.67
2018-12-22T01:50:47.882Z,32.63
2018-12-22T01:53:15.449Z,35.87
2018-12-22T01:55:42.931Z,36.87
2018-12-22T01:58:10.491Z,36.93
2018-12-22T02:00:38.499Z,38.50
2018-12-22T02:03:06.023Z,40.20
2018-12-22T02:05:33.518Z,41.23
2018-12-22T02:08:00.989Z,36.37
2018-12-22T02:10:28.416Z,39.53
2018-12-22T02:12:55.948Z,44.57
2018-12-22T02:15:23.426Z,27.57
2018-12-22T02:17:51.315Z,19.57
2018-12-22T02:20:18.986Z,19.47
2018-12-22T02:22:47.187Z,23.13
2018-12-22T02:25:14.658Z,21.13
2018-12-22T02:27:42.201Z,29.97
2018-12-22T02:30:09.769Z,27.30
2018-12-22T02:32:37.756Z,24.10
2018-12-22T02:35:05.792Z,23.63
2018-12-22T02:37:33.255Z,24.90
2018-12-22T02:40:00.902Z,37.27
2018-12-22T02:42:28.419Z,37.97
2018-12-22T02:44:56.054Z,39.97
2018-12-22T02:47:24.454Z,32.73
2018-12-22T02:49:52.429Z,33.27
2018-12-22T02:52:19.909Z,41.40
2018-12-22T02:54:47.448Z,49.10
2018-12-22T02:57:14.868Z,40.27
2018-12-22T02:59:42.381Z,50.57
2018-12-22T03:02:10.145Z,43.57
2018-12-22T03:04:37.602Z,38.50
2018-12-22T03:07:05.169Z,49.37
2018-12-22T03:09:32.644Z,40.47
2018-12-22T03:12:01.148Z,44.33
2018-12-22T03:14:28.587Z,35.10
2018-12-22T03:16:56.034Z,41.03
2018-12-22T03:19:28.076Z,31.43
2018-12-22T03:21:55.533Z,37.80
2018-12-22T03:24:22.988Z,20.73
2018-12-22T03:26:50.412Z,20.53
2018-12-22T03:29:17.834Z,27.17
2018-12-22T03:31:45.271Z,18.03
2018-12-22T03:34:12.834Z,25.23
2018-12-22T03:36:40.517Z,23.33
2018-12-22T03:39:08.157Z,22.20
2018-12-22T03:41:35.670Z,16.37
2018-12-22T03:44:03.097Z,15.40
2018-12-22T03:46:31.208Z,18.50
2018-12-22T03:48:58.740Z,14.43
2018-12-22T03:51:26.193Z,16.70
2018-12-22T03:53:53.692Z,14.20
2018-12-22T03:56:22.188Z,11.37
2018-12-22T03:58:49.694Z,13.90
2018-12-22T04:01:17.184Z,6.80
2018-12-22T04:03:44.634Z,16.27
2018-12-22T04:06:12.149Z,8.50
2018-12-22T04:08:39.663Z,11.47
2018-12-22T04:11:07.350Z,10.30
2018-12-22T04:13:34.782Z,20.07
2018-12-22T04:16:02.245Z,15.77
2018-12-22T04:18:29.802Z,17.53
2018-12-22T04:20:57.532Z,16.27
2018-12-22T04:23:25.727Z,14.60
2018-12-22T04:25:53.685Z,12.83
2018-12-22T04:28:21.143Z,11.50
2018-12-22T04:30:48.724Z,15.80
2018-12-22T04:33:16.318Z,11.20
2018-12-22T04:35:44.714Z,11.20
2018-12-22T04:38:12.222Z,8.93
2018-12-22T04:40:40.506Z,10.43
2018-12-22T04:43:07.935Z,8.03
2018-12-22T04:45:36.067Z,9.50
2018-12-22T04:48:06.308Z,12.37
2018-12-22T04:50:37.871Z,10.97
2018-12-22T04:53:05.434Z,9.17
2018-12-22T04:55:33.105Z,13.00
2018-12-22T04:58:00.653Z,11.90
2018-12-22T05:00:28.837Z,10.13
2018-12-22T05:02:56.319Z,11.07
2018-12-22T05:05:23.854Z,11.03
2018-12-22T05:07:51.355Z,10.10
2018-12-22T05:10:18.814Z,8.07
2018-12-22T05:12:46.348Z,8.67
2018-12-22T05:15:13.828Z,8.93
2018-12-22T05:17:41.371Z,10.60
2018-12-22T05:20:11.414Z,7.37
2018-12-22T05:22:38.927Z,9.80
2018-12-22T05:25:06.566Z,8.90
2018-12-22T05:27:34.109Z,11.70
2018-12-22T05:30:01.570Z,11.10
2018-12-22T05:32:29.005Z,8.87
2018-12-22T05:34:56.436Z,8.70
2018-12-22T05:37:23.982Z,6.90
2018-12-22T05:39:51.499Z,8.27
2018-12-22T05:42:18.959Z,9.30
2018-12-22T05:44:47.441Z,8.60
2018-12-22T05:47:14.847Z,10.20
2018-12-22T05:49:42.347Z,11.17
2018-12-22T05:52:10.057Z,11.67
2018-12-22T05:54:37.632Z,8.53
2018-12-22T05:57:05.105Z,12.73
2018-12-22T05:59:32.690Z,12.07
2018-12-22T06:02:00.107Z,16.50
2018-12-22T06:04:27.678Z,8.07
2018-12-22T06:06:55.149Z,16.23
2018-12-22T06:09:22.687Z,9.93
2018-12-22T06:11:50.117Z,10.27
2018-12-22T06:14:21.705Z,10.97
2018-12-22T06:16:49.292Z,8.90
2018-12-22T06:19:16.682Z,15.30
2018-12-22T06:21:44.100Z,14.20
2018-12-22T06:24:11.567Z,13.40
2018-12-22T06:26:39.127Z,10.77
2018-12-22T06:29:06.619Z,10.63
2018-12-22T06:31:38.104Z,13.10
2018-12-22T06:34:05.543Z,10.00
2018-12-22T06:36:32.966Z,9.43
2018-12-22T06:39:05.063Z,7.77
2018-12-22T06:41:33.042Z,12.27
2018-12-22T06:44:01.059Z,8.47
2018-12-22T06:46:28.543Z,11.73
2018-12-22T06:48:55.956Z,11.07
2018-12-22T06:51:23.420Z,11.43
2018-12-22T06:53:51.119Z,12.17
2018-12-22T06:56:18.671Z,13.00
2018-12-22T06:58:46.334Z,10.47
2018-12-22T07:01:18.174Z,8.47
2018-12-22T07:03:46.090Z,9.00
2018-12-22T07:06:14.157Z,10.93
2018-12-22T07:08:41.686Z,10.03
2018-12-22T07:11:09.189Z,10.57
2018-12-22T07:13:36.666Z,12.00
2018-12-22T07:16:04.162Z,11.33
2018-12-22T07:18:31.667Z,12.43
2018-12-22T07:20:59.160Z,7.53
2018-12-22T07:23:27.246Z,10.47
2018-12-22T07:25:54.749Z,9.23
2018-12-22T07:28:22.418Z,11.17
2018-12-22T07:30:49.972Z,12.37
2018-12-22T07:33:17.389Z,9.47
2018-12-22T07:35:44.963Z,10.47
2018-12-22T07:38:12.410Z,6.57
2018-12-22T07:40:39.954Z,8.20
2018-12-22T07:43:07.463Z,6.67
2018-12-22T07:45:34.931Z,5.87
2018-12-22T07:48:02.424Z,9.77
2018-12-22T07:50:29.912Z,12.43
2018-12-22T07:52:57.552Z,8.50
2018-12-22T07:55:25.007Z,9.80
2018-12-22T07:57:52.950Z,10.13
2018-12-22T08:00:25.003Z,15.60
2018-12-22T08:02:52.389Z,10.93
2018-12-22T08:05:19.865Z,9.20
2018-12-22T08:07:47.323Z,12.17
2018-12-22T08:10:14.762Z,9.87
2018-12-22T08:12:42.245Z,11.00
2018-12-22T08:15:09.666Z,8.03
2018-12-22T08:17:37.104Z,11.77
2018-12-22T08:20:05.097Z,7.93
2018-12-22T08:22:32.556Z,10.73
2018-12-22T08:25:00.034Z,8.50
2018-12-22T08:27:27.655Z,9.17
2018-12-22T08:29:55.059Z,9.80
2018-12-22T08:32:23.387Z,10.20
2018-12-22T08:34:50.883Z,7.57
2018-12-22T08:37:18.382Z,9.83
2018-12-22T08:39:45.793Z,10.13
2018-12-22T08:42:13.827Z,7.60
2018-12-22T08:44:42.862Z,8.33
2018-12-22T08:47:10.575Z,10.47
2018-12-22T08:49:38.015Z,9.70
2018-12-22T08:52:05.410Z,18.17
2018-12-22T08:54:32.992Z,8.73
2018-12-22T08:57:00.399Z,10.10
2018-12-22T08:59:27.902Z,12.43
2018-12-22T09:01:55.465Z,8.77
2018-12-22T09:04:22.945Z,7.33
2018-12-22T09:06:50.367Z,6.60
2018-12-22T09:09:17.929Z,9.33
2018-12-22T09:11:45.522Z,7.80
2018-12-22T09:14:12.946Z,8.67
2018-12-22T09:16:40.388Z,10.17
2018-12-22T09:19:07.892Z,7.83
2018-12-22T09:21:35.528Z,7.77
2018-12-22T09:24:02.984Z,8.27
2018-12-22T09:26:30.458Z,7.77
2018-12-22T09:28:58.031Z,16.03
2018-12-22T09:31:25.553Z,8.73
2018-12-22T09:33:53.032Z,11.43
2018-12-22T09:36:21.232Z,7.27
2018-12-22T09:38:48.668Z,6.50
2018-12-22T09:41:17.043Z,10.53
2018-12-22T09:43:45.136Z,8.73
2018-12-22T09:46:12.641Z,15.33
2018-12-22T09:48:40.093Z,9.40
2018-12-22T09:51:07.596Z,8.07
2018-12-22T09:53:35.043Z,10.03
2018-12-22T09:56:03.229Z,9.53
2018-12-22T09:58:30.772Z,13.17
2018-12-22T10:00:58.239Z,11.87
2018-12-22T10:03:25.670Z,12.33
2018-12-22T10:05:53.346Z,12.13
2018-12-22T10:08:20.921Z,11.33
2018-12-22T10:10:48.404Z,6.07
2018-12-22T10:13:15.884Z,7.47
2018-12-22T10:15:43.314Z,11.03
2018-12-22T10:18:10.807Z,7.40
2018-12-22T10:20:38.288Z,9.17
2018-12-22T10:23:05.832Z,11.13
2018-12-22T10:25:33.407Z,8.73
2018-12-22T10:28:00.912Z,9.37
2018-12-22T10:30:28.329Z,7.90
2018-12-22T10:32:55.839Z,12.00
2018-12-22T10:35:26.459Z,12.97
2018-12-22T10:37:53.905Z,9.87
2018-12-22T10:40:21.293Z,9.17
2018-12-22T10:42:48.756Z,8.43
2018-12-22T10:45:16.177Z,8.47
2018-12-22T10:47:43.682Z,10.33
2018-12-22T10:50:14.956Z,8.20
2018-12-22T10:52:42.435Z,7.30
2018-12-22T10:55:10.733Z,10.10
2018-12-22T10:57:38.767Z,5.07
2018-12-22T11:00:08.092Z,7.50
2018-12-22T11:02:35.552Z,6.33
2018-12-22T11:05:03.033Z,9.50
2018-12-22T11:07:30.544Z,3.53
2018-12-22T11:09:58.074Z,7.27
2018-12-22T11:12:25.558Z,9.90
2018-12-22T11:14:53.034Z,10.03
2018-12-22T11:17:20.490Z,8.93
2018-12-22T11:19:49.071Z,9.23
2018-12-22T11:22:16.577Z,9.67
2018-12-22T11:24:44.802Z,10.53
2018-12-22T11:27:12.320Z,11.73
2018-12-22T11:29:39.970Z,8.00
2018-12-22T11:32:07.384Z,10.47
2018-12-22T11:34:34.852Z,10.30
2018-12-22T11:37:02.403Z,8.20
2018-12-22T11:39:29.917Z,8.33
2018-12-22T11:41:57.539Z,8.67
2018-12-22T11:44:25.961Z,11.30
2018-12-22T11:46:54.303Z,10.87
2018-12-22T11:49:38.082Z,10.07
2018-12-22T11:52:05.729Z,11.00
2018-12-22T11:54:33.152Z,10.00
2018-12-22T11:57:00.718Z,16.30
2018-12-22T11:59:28.190Z,10.80
2018-12-22T12:01:55.622Z,11.47
2018-12-22T12:04:23.051Z,10.47
2018-12-22T12:06:50.591Z,9.53
2018-12-22T12:09:18.075Z,11.53
2018-12-22T12:11:45.560Z,12.07
2018-12-22T12:14:13.136Z,10.73
2018-12-22T12:16:46.539Z,8.87
2018-12-22T12:19:16.113Z,11.87
2018-12-22T12:21:43.562Z,9.57
2018-12-22T12:24:11.037Z,13.90
2018-12-22T12:26:38.610Z,11.50
2018-12-22T12:29:06.040Z,11.10
2018-12-22T12:31:34.134Z,12.43
2018-12-22T12:34:02.319Z,7.53
2018-12-22T12:36:29.781Z,11.83
2018-12-22T12:38:57.403Z,9.90
2018-12-22T12:41:26.487Z,11.30
2018-12-22T12:43:54.136Z,8.00
2018-12-22T12:46:22.451Z,9.17
2018-12-22T12:48:50.722Z,11.40
2018-12-22T12:51:18.241Z,10.20
2018-12-22T12:53:46.898Z,16.73
2018-12-22T12:56:14.470Z,9.53
2018-12-22T12:58:41.987Z,9.70
2018-12-22T13:01:09.460Z,13.37
2018-12-22T13:03:36.877Z,12.50
2018-12-22T13:06:04.345Z,14.77
2018-12-22T13:08:31.728Z,10.43
2018-12-22T13:10:59.152Z,15.43
2018-12-22T13:13:30.073Z,11.40
2018-12-22T13:15:57.562Z,9.13
2018-12-22T13:18:26.068Z,13.60
2018-12-22T13:20:53.671Z,13.63
2018-12-22T13:23:21.149Z,9.10
2018-12-22T13:25:54.748Z,11.03
2018-12-22T13:28:22.268Z,18.33
2018-12-22T13:30:49.717Z,12.60
2018-12-22T13:33:17.465Z,11.57
2018-12-22T13:35:45.220Z,11.40
2018-12-22T13:38:12.803Z,11.47
2018-12-22T13:40:40.321Z,14.30
2018-12-22T13:43:07.814Z,12.57
2018-12-22T13:45:35.376Z,15.20
2018-12-22T13:48:03.076Z,15.70
2018-12-22T13:50:30.798Z,16.70
2018-12-22T13:52:58.376Z,11.83
2018-12-22T13:55:25.900Z,13.43
2018-12-22T13:57:53.367Z,11.33
2018-12-22T14:00:21.066Z,11.93
2018-12-22T14:02:48.616Z,13.80
2018-12-22T14:05:18.069Z,17.20
2018-12-22T14:07:45.637Z,11.77
2018-12-22T14:10:13.098Z,14.53
2018-12-22T14:12:40.535Z,11.83
2018-12-22T14:15:09.935Z,11.33
2018-12-22T14:17:55.963Z,17.00
2018-12-22T14:20:24.015Z,14.00
2018-12-22T14:22:51.756Z,18.13
2018-12-22T14:25:23.139Z,12.40
2018-12-22T14:27:50.572Z,12.90
2018-12-22T14:30:18.746Z,14.70
2018-12-22T14:32:46.912Z,11.17
2018-12-22T14:35:18.583Z,17.83
2018-12-22T14:37:46.090Z,14.67
2018-12-22T14:40:13.961Z,11.83
2018-12-22T14:42:41.767Z,12.57
2018-12-22T14:45:10.105Z,13.90
2018-12-22T14:47:37.596Z,15.40
2018-12-22T14:50:05.586Z,12.53
2018-12-22T14:52:33.057Z,16.03
2018-12-22T14:55:01.259Z,19.23
2018-12-22T14:57:30.085Z,17.53
2018-12-22T14:59:57.562Z,12.03
2018-12-22T15:02:26.156Z,10.30
2018-12-22T15:04:53.677Z,13.93
2018-12-22T15:07:21.224Z,14.57
2018-12-22T15:09:49.029Z,12.77
2018-12-22T15:12:17.217Z,15.20
2018-12-22T15:14:44.660Z,13.73
2018-12-22T15:17:12.072Z,9.47
2018-12-22T15:19:42.690Z,17.00
2018-12-22T15:22:10.151Z,13.33
2018-12-22T15:24:37.793Z,12.00
2018-12-22T15:27:05.214Z,13.67
2018-12-22T15:29:32.663Z,14.87
2018-12-22T15:32:00.943Z,15.67
2018-12-22T15:34:28.394Z,10.33
2018-12-22T15:36:55.869Z,9.80
2018-12-22T15:39:23.459Z,11.80
2018-12-22T15:41:59.474Z,17.83
2018-12-22T15:44:26.965Z,14.77
2018-12-22T15:46:54.707Z,14.60
2018-12-22T15:49:23.562Z,16.83
2018-12-22T15:51:50.987Z,12.10
2018-12-22T15:54:18.416Z,12.67
2018-12-22T15:56:45.838Z,13.80
2018-12-22T15:59:13.365Z,17.13
2018-12-22T16:01:40.828Z,10.20
2018-12-22T16:04:11.323Z,14.43
2018-12-22T16:06:39.778Z,11.17
2018-12-22T16:09:07.421Z,15.20
2018-12-22T16:11:34.873Z,12.17
2018-12-22T16:14:03.145Z,15.63
2018-12-22T16:16:30.632Z,11.00
2018-12-22T16:18:58.151Z,13.80
2018-12-22T16:21:25.639Z,14.47
2018-12-22T16:23:53.051Z,13.97
2018-12-22T16:26:20.498Z,11.77
2018-12-22T16:29:07.632Z,17.40
2018-12-22T16:31:35.153Z,15.07
2018-12-22T16:34:02.696Z,11.73
2018-12-22T16:36:30.171Z,15.37
2018-12-22T16:38:57.603Z,9.30
2018-12-22T16:41:25.116Z,14.50
2018-12-22T16:43:52.604Z,12.47
2018-12-22T16:46:20.052Z,12.30
2018-12-22T16:48:47.553Z,11.77
2018-12-22T16:51:15.003Z,12.60
2018-12-22T16:53:42.604Z,15.27
2018-12-22T16:56:10.904Z,11.13
2018-12-22T16:58:39.358Z,12.00
2018-12-22T17:01:10.209Z,12.63
2018-12-22T17:03:37.681Z,13.63
2018-12-22T17:06:10.231Z,9.23
2018-12-22T17:08:37.813Z,12.37
2018-12-22T17:11:05.840Z,14.17
2018-12-22T17:13:33.293Z,9.83
2018-12-22T17:16:01.213Z,11.17
2018-12-22T17:18:29.198Z,12.60
2018-12-22T17:20:59.924Z,10.80
2018-12-22T17:23:29.692Z,13.47
2018-12-22T17:26:00.762Z,9.93
2018-12-22T17:28:28.704Z,12.07
2018-12-22T17:30:56.385Z,10.90
2018-12-22T17:33:23.967Z,11.40
2018-12-22T17:35:58.090Z,13.47
2018-12-22T17:38:26.075Z,12.47
2018-12-22T17:40:54.037Z,12.73
2018-12-22T17:43:21.553Z,18.97
2018-12-22T17:45:53.171Z,12.67
2018-12-22T17:48:21.425Z,11.53
2018-12-22T17:50:48.953Z,14.03
2018-12-22T17:53:16.626Z,12.53
2018-12-22T17:55:44.211Z,10.93
2018-12-22T17:58:11.654Z,12.87
2018-12-22T18:00:39.114Z,15.50
2018-12-22T18:03:07.624Z,11.83
2018-12-22T18:05:35.339Z,14.07
2018-12-22T18:08:03.541Z,14.27
2018-12-22T18:10:35.168Z,16.87
2018-12-22T18:13:02.687Z,18.17
2018-12-22T18:15:30.271Z,13.50
2018-12-22T18:17:57.738Z,14.53
2018-12-22T18:20:25.316Z,11.23
2018-12-22T18:22:52.767Z,15.67
2018-12-22T18:25:20.597Z,11.60
2018-12-22T18:27:48.166Z,13.17
2018-12-22T18:30:15.778Z,12.23
2018-12-22T18:32:43.295Z,14.27
2018-12-22T18:35:11.467Z,11.10
2018-12-22T18:37:45.477Z,17.60
2018-12-22T18:40:14.383Z,11.07
2018-12-22T18:42:41.985Z,9.50
2018-12-22T18:45:10.414Z,10.50
2018-12-22T18:47:37.924Z,12.47
2018-12-22T18:50:06.817Z,14.37
2018-12-22T18:52:34.281Z,14.60
2018-12-22T18:55:02.352Z,15.80
2018-12-22T18:57:29.811Z,12.73
2018-12-22T18:59:57.361Z,9.07
2018-12-22T19:02:24.842Z,13.53
2018-12-22T19:04:52.328Z,9.20
2018-12-22T19:07:20.342Z,14.97
2018-12-22T19:09:48.984Z,10.63
2018-12-22T19:12:17.260Z,8.37
2018-12-22T19:14:50.340Z,11.70
2018-12-22T19:17:17.762Z,12.27
2018-12-22T19:19:45.588Z,10.70
2018-12-22T19:22:13.114Z,10.57
2018-12-22T19:24:40.832Z,13.37
2018-12-22T19:27:08.285Z,7.93
2018-12-22T19:29:37.024Z,10.90
2018-12-22T19:32:04.573Z,9.63
2018-12-22T19:34:32.027Z,14.33
2018-12-22T19:36:59.579Z,7.87
2018-12-22T19:39:27.146Z,6.90
2018-12-22T19:41:54.673Z,13.50
2018-12-22T19:44:22.194Z,7.97
2018-12-22T19:46:49.600Z,8.47
2018-12-22T19:49:17.174Z,13.37
2018-12-22T19:51:44.878Z,9.23
2018-12-22T19:54:12.429Z,7.53
2018-12-22T19:56:40.027Z,9.77
2018-12-22T19:59:07.649Z,11.67
2018-12-22T20:01:35.108Z,10.20
2018-12-22T20:04:02.618Z,8.53
2018-12-22T20:06:30.080Z,8.73
2018-12-22T20:08:57.571Z,9.33
2018-12-22T20:11:25.067Z,12.17
2018-12-22T20:13:52.642Z,8.93
2018-12-22T20:16:20.204Z,12.53
2018-12-22T20:18:47.607Z,7.20
2018-12-22T20:21:15.049Z,12.03
2018-12-22T20:23:42.616Z,18.77
2018-12-22T20:26:10.235Z,13.90
2018-12-22T20:28:38.371Z,8.53
2018-12-22T20:31:05.894Z,17.80
2018-12-22T20:33:33.438Z,10.00
2018-12-22T20:36:01.070Z,13.33
2018-12-22T20:38:28.598Z,11.80
2018-12-22T20:40:56.180Z,9.63
2018-12-22T20:43:23.873Z,10.77
2018-12-22T20:45:51.711Z,8.73
2018-12-22T20:48:19.206Z,10.80
2018-12-22T20:50:46.805Z,16.10
2018-12-22T20:53:14.441Z,15.20
2018-12-22T20:55:41.936Z,14.00
2018-12-22T20:58:09.831Z,12.63
2018-12-22T21:00:45.783Z,13.23
2018-12-22T21:03:13.478Z,14.17
2018-12-22T21:05:52.290Z,13.73
2018-12-22T21:08:19.850Z,11.57
2018-12-22T21:10:47.442Z,16.40
2018-12-22T21:13:14.893Z,14.53
2018-12-22T21:15:47.656Z,14.43
2018-12-22T21:21:36.089Z,14.40
2018-12-22T21:24:04.362Z,17.63
2018-12-22T21:26:32.546Z,11.90
2018-12-22T21:29:00.084Z,9.60
2018-12-22T21:31:27.867Z,8.23
2018-12-22T21:33:55.669Z,12.87
2018-12-22T21:36:39.843Z,17.03
2018-12-22T21:39:28.793Z,16.27
2018-12-22T21:41:56.931Z,16.97
2018-12-22T21:44:25.529Z,12.03
2018-12-22T21:46:54.043Z,9.40
2018-12-22T21:49:21.562Z,12.93
2018-12-22T21:51:49.053Z,12.17
2018-12-22T21:54:17.017Z,10.00
2018-12-22T21:56:45.201Z,11.37
2018-12-22T21:59:16.908Z,11.47
2018-12-22T22:01:44.493Z,16.07
2018-12-22T22:04:16.373Z,13.43
2018-12-22T22:06:49.394Z,12.60
2018-12-22T22:09:19.223Z,12.17
2018-12-22T22:11:46.997Z,12.23
2018-12-22T22:14:15.519Z,11.20
2018-12-22T22:16:43.145Z,12.00
2018-12-22T22:19:11.867Z,14.40
2018-12-22T22:21:39.900Z,10.60
2018-12-22T22:24:08.205Z,8.70
2018-12-22T22:26:35.831Z,10.67
2018-12-22T22:29:04.314Z,15.20
2018-12-22T22:31:36.541Z,16.13
2018-12-22T22:34:04.094Z,11.27
2018-12-22T22:36:32.691Z,14.50
2018-12-22T22:39:06.969Z,10.50
2018-12-22T22:41:36.240Z,12.40
2018-12-22T22:44:04.156Z,18.13
2018-12-22T22:46:31.735Z,9.90
2018-12-22T22:48:59.445Z,14.83
2018-12-22T22:51:27.016Z,12.63
2018-12-22T22:53:54.795Z,14.67
2018-12-22T22:56:22.519Z,10.23
2018-12-22T22:58:50.810Z,11.37
2018-12-22T23:01:18.377Z,15.00
2018-12-22T23:03:45.907Z,7.63
2018-12-22T23:06:13.786Z,13.33
2018-12-22T23:08:41.332Z,13.30
2018-12-22T23:11:08.822Z,13.30
2018-12-22T23:13:36.294Z,10.33
2018-12-22T23:16:03.908Z,15.67
2018-12-22T23:18:32.006Z,6.73
2018-12-22T23:21:00.566Z,18.97
2018-12-22T23:23:31.424Z,12.23
2018-12-22T23:26:00.734Z,10.50
2018-12-22T23:28:30.191Z,9.20
2018-12-22T23:31:00.214Z,11.13
2018-12-22T23:33:27.700Z,11.20
2018-12-22T23:35:55.486Z,12.63
2018-12-22T23:38:24.086Z,10.07
2018-12-22T23:41:15.665Z,11.10
2018-12-22T23:43:43.222Z,14.33
2018-12-22T23:46:10.700Z,8.10
2018-12-22T23:48:38.206Z,10.20
2018-12-22T23:51:05.685Z,12.63
2018-12-22T23:53:33.138Z,12.57
2018-12-22T23:56:00.605Z,15.20
2018-12-22T23:58:28.080Z,11.47
